Time;durP1;ratioP1;P1;durP2;ratioP2;P2;SDS_P1;SDS_P2;PMS_P1;PMS_P2;Temp;Humidity;BMP_temperature;BMP_pressure;BME280_temperature;BME280_humidity;BME280_pressure;Samples;Min_cycle;Max_cycle;Signal;HPM_P1;HPM_P2
2023/08/28 00:00:35;;;;;;;7.75;3.38;;;;;;;24.17;41.61;94656.41;5072149;28;20031;-80
2023/08/28 00:03:00;;;;;;;5.93;2.92;;;;;;;24.05;42.02;94669.09;5088828;28;20125;-80
2023/08/28 00:05:29;;;;;;;6.13;3.35;;;;;;;24.04;42.03;94667.59;5071931;28;20023;-81
2023/08/28 00:07:55;;;;;;;5.70;3.30;;;;;;;24.05;42.27;94663.47;5088745;28;20712;-80
2023/08/28 00:10:20;;;;;;;3.45;2.95;;;;;;;24.00;41.96;94655.91;5090058;28;20028;-80
2023/08/28 00:12:45;;;;;;;7.10;3.50;;;;;;;24.05;42.09;94655.81;5089277;28;20020;-81
2023/08/28 00:15:11;;;;;;;7.40;3.42;;;;;;;23.90;42.48;94654.75;5089413;28;20028;-81
2023/08/28 00:17:36;;;;;;;5.10;3.38;;;;;;;23.81;42.54;94647.50;5089974;28;20100;-80
2023/08/28 00:20:09;;;;;;;6.20;3.65;;;;;;;23.86;42.38;94649.47;5088199;28;20032;-81
2023/08/28 00:22:37;;;;;;;5.57;3.00;;;;;;;23.89;42.78;94648.38;5072185;28;20067;-80
2023/08/28 00:25:04;;;;;;;8.77;3.80;;;;;;;23.94;42.66;94664.41;5070363;28;20051;-79
2023/08/28 00:27:30;;;;;;;4.50;3.83;;;;;;;23.95;42.75;94656.72;5089870;28;20032;-80
2023/08/28 00:29:55;;;;;;;6.47;3.63;;;;;;;23.98;42.63;94662.06;5070693;28;20024;-81
2023/08/28 00:32:21;;;;;;;6.70;3.55;;;;;;;24.02;42.67;94647.69;5088947;28;20042;-81
2023/08/28 00:34:47;;;;;;;6.15;3.70;;;;;;;24.01;42.28;94655.34;5089274;28;20489;-81
2023/08/28 00:37:12;;;;;;;5.13;3.28;;;;;;;24.00;42.30;94658.69;5087937;28;20114;-80
2023/08/28 00:39:38;;;;;;;5.47;3.58;;;;;;;23.96;42.74;94661.81;5071310;28;20444;-81
2023/08/28 00:42:04;;;;;;;6.00;3.60;;;;;;;23.98;42.26;94672.53;5069682;28;20027;-80
2023/08/28 00:44:29;;;;;;;4.28;3.05;;;;;;;23.90;42.49;94669.53;5089565;28;20103;-80
2023/08/28 00:46:55;;;;;;;7.00;3.58;;;;;;;23.94;42.46;94675.63;5087814;28;20104;-81
2023/08/28 00:49:21;;;;;;;5.45;3.25;;;;;;;23.97;42.26;94674.56;5071044;28;20027;-80
2023/08/28 00:51:47;;;;;;;3.83;3.30;;;;;;;23.91;42.09;94673.88;5071286;28;20016;-80
2023/08/28 00:54:12;;;;;;;4.93;3.15;;;;;;;23.90;42.27;94668.78;5088506;28;20028;-79
2023/08/28 00:56:39;;;;;;;7.18;3.70;;;;;;;23.80;42.52;94660.78;5071385;28;20063;-81
2023/08/28 00:59:04;;;;;;;12.20;3.75;;;;;;;23.65;42.68;94656.88;5087824;28;20020;-81
2023/08/28 01:01:30;;;;;;;5.80;4.00;;;;;;;23.39;43.12;94649.78;5089296;28;20027;-78
2023/08/28 01:03:55;;;;;;;6.55;4.03;;;;;;;23.38;43.32;94655.91;5069257;28;20416;-78
2023/08/28 01:06:21;;;;;;;6.05;4.10;;;;;;;23.24;43.49;94653.03;5071064;28;20027;-80
2023/08/28 01:09:08;;;;;;;7.10;4.50;;;;;;;23.30;43.45;94656.50;5087955;28;20513;-80
2023/08/28 01:11:42;;;;;;;9.55;4.35;;;;;;;23.20;43.23;94652.53;5088262;28;20032;-80
2023/08/28 01:14:17;;;;;;;7.32;4.40;;;;;;;23.04;43.74;94639.47;5070751;28;20028;-81
2023/08/28 01:16:44;;;;;;;7.35;4.75;;;;;;;23.16;43.79;94654.13;5069268;28;20407;-81
2023/08/28 01:19:19;;;;;;;6.20;4.30;;;;;;;23.16;43.53;94654.88;5070598;28;20032;-80
2023/08/28 01:21:48;;;;;;;7.95;5.50;;;;;;;23.21;43.83;94658.91;5052724;28;20032;-81
2023/08/28 01:24:15;;;;;;;5.72;4.85;;;;;;;23.20;44.09;94646.19;5069827;28;20106;-80
2023/08/28 01:26:41;;;;;;;5.63;4.80;;;;;;;23.24;43.90;94649.47;5088630;28;20143;-81
2023/08/28 01:29:06;;;;;;;7.47;4.65;;;;;;;23.25;44.34;94653.78;5087197;28;20135;-81
2023/08/28 01:31:32;;;;;;;6.28;4.45;;;;;;;23.26;44.61;94649.69;5088592;28;20027;-81
2023/08/28 01:33:57;;;;;;;8.93;4.72;;;;;;;23.24;44.76;94643.84;5086521;28;20169;-81
2023/08/28 01:36:35;;;;;;;8.60;4.30;;;;;;;23.16;44.89;94631.69;5070221;28;20051;-81
2023/08/28 01:39:05;;;;;;;6.03;4.22;;;;;;;23.19;45.17;94636.25;5069174;28;20024;-81
2023/08/28 01:41:31;;;;;;;7.18;4.68;;;;;;;23.20;45.01;94629.34;5069590;28;20501;-81
2023/08/28 01:44:00;;;;;;;8.85;4.68;;;;;;;23.23;45.17;94633.94;5069694;28;20031;-81
2023/08/28 01:46:27;;;;;;;7.97;4.45;;;;;;;23.16;45.12;94626.09;5087144;28;20360;-81
2023/08/28 01:48:53;;;;;;;4.90;4.20;;;;;;;23.13;45.37;94622.31;5088297;28;20470;-81
2023/08/28 01:51:22;;;;;;;5.90;4.22;;;;;;;23.14;45.38;94628.66;5086671;28;20065;-81
2023/08/28 01:53:48;;;;;;;6.95;4.70;;;;;;;23.10;45.37;94626.16;5088096;28;20039;-81
2023/08/28 01:56:16;;;;;;;7.13;4.53;;;;;;;23.01;45.50;94624.47;5068604;28;20410;-82
2023/08/28 01:58:49;;;;;;;5.18;3.90;;;;;;;23.01;45.66;94623.72;5069612;28;20032;-81
2023/08/28 02:01:15;;;;;;;7.35;4.18;;;;;;;22.98;45.89;94631.13;5070160;28;20024;-81
2023/08/28 02:03:40;;;;;;;5.32;3.83;;;;;;;22.87;46.23;94625.63;5068466;28;20512;-81
2023/08/28 02:06:06;;;;;;;5.93;4.22;;;;;;;22.89;46.18;94625.88;5088067;28;20024;-80
2023/08/28 02:08:32;;;;;;;6.95;4.28;;;;;;;22.81;46.18;94616.50;5086824;28;20024;-81
2023/08/28 02:10:57;;;;;;;6.38;4.80;;;;;;;22.82;46.46;94620.81;5087836;28;20470;-80
2023/08/28 02:13:22;;;;;;;7.10;4.07;;;;;;;22.84;46.29;94623.13;5086444;28;20540;-81
2023/08/28 02:15:48;;;;;;;6.18;4.50;;;;;;;22.72;46.43;94625.28;5069627;28;20032;-80
2023/08/28 02:18:13;;;;;;;6.65;4.78;;;;;;;22.72;46.62;94631.63;5069180;28;20032;-81
2023/08/28 02:20:39;;;;;;;6.85;4.47;;;;;;;22.70;46.87;94627.81;5069102;28;20422;-80
2023/08/28 02:23:05;;;;;;;6.60;4.40;;;;;;;22.56;46.64;94621.34;5087668;28;20426;-81
2023/08/28 02:25:30;;;;;;;7.68;4.50;;;;;;;22.62;46.92;94624.09;5086580;28;20510;-81
2023/08/28 02:27:55;;;;;;;8.70;4.18;;;;;;;22.58;47.09;94615.22;5069787;28;20380;-81
2023/08/28 02:30:21;;;;;;;6.97;4.63;;;;;;;22.62;47.05;94618.50;5086456;28;20433;-81
2023/08/28 02:32:46;;;;;;;8.18;4.28;;;;;;;22.62;47.12;94624.84;5087744;28;20154;-80
2023/08/28 02:35:12;;;;;;;9.10;4.88;;;;;;;22.50;47.14;94603.84;5068590;28;20031;-81
2023/08/28 02:37:41;;;;;;;6.13;4.63;;;;;;;22.52;47.32;94613.22;5069446;28;20514;-80
2023/08/28 02:40:09;;;;;;;9.77;5.03;;;;;;;22.47;47.27;94611.22;5087760;28;20021;-81
2023/08/28 02:42:35;;;;;;;7.05;4.05;;;;;;;22.43;47.29;94613.56;5087263;28;20498;-79
2023/08/28 02:45:01;;;;;;;8.20;5.03;;;;;;;22.33;47.36;94606.03;5088074;28;20032;-79
2023/08/28 02:47:26;;;;;;;9.40;4.97;;;;;;;22.35;47.68;94609.81;5051635;28;20478;-80
2023/08/28 02:49:51;;;;;;;8.32;4.57;;;;;;;22.24;47.75;94601.50;5088173;28;20506;-82
2023/08/28 02:52:18;;;;;;;6.50;4.53;;;;;;;22.21;47.99;94602.56;5068078;28;20107;-81
2023/08/28 02:54:43;;;;;;;5.95;4.78;;;;;;;22.26;47.89;94610.16;5088382;28;20051;-81
2023/08/28 02:57:08;;;;;;;6.63;4.88;;;;;;;22.18;47.73;94609.94;5056361;28;20475;-81
2023/08/28 02:59:34;;;;;;;6.93;4.78;;;;;;;22.21;48.12;94619.34;5090937;28;20024;-80
2023/08/28 03:01:59;;;;;;;10.68;5.10;;;;;;;22.16;48.46;94618.13;5091519;28;20093;-81
2023/08/28 03:04:24;;;;;;;6.97;5.10;;;;;;;22.14;48.45;94626.28;5055139;28;20036;-81
2023/08/28 03:06:50;;;;;;;9.13;5.28;;;;;;;22.12;48.51;94616.88;5091394;28;20016;-82
2023/08/28 03:09:15;;;;;;;8.98;5.45;;;;;;;22.04;48.78;94621.50;5089932;28;20428;-81
2023/08/28 03:11:41;;;;;;;8.63;5.25;;;;;;;22.01;48.79;94621.25;5091365;28;20118;-81
2023/08/28 03:14:06;;;;;;;8.07;5.07;;;;;;;21.98;49.02;94622.28;5071656;28;20081;-81
2023/08/28 03:16:32;;;;;;;10.02;5.38;;;;;;;21.97;49.03;94620.03;5072955;28;20039;-82
2023/08/28 03:18:58;;;;;;;8.15;5.05;;;;;;;21.95;49.03;94626.13;5072375;28;20100;-81
2023/08/28 03:21:23;;;;;;;6.82;5.13;;;;;;;21.95;48.94;94628.91;5071644;28;20106;-81
2023/08/28 03:23:48;;;;;;;8.10;5.60;;;;;;;21.91;48.83;94631.25;5055767;28;20505;-81
2023/08/28 03:26:14;;;;;;;9.82;5.22;;;;;;;21.88;48.98;94626.69;5089595;28;20111;-81
2023/08/28 03:28:39;;;;;;;7.70;4.82;;;;;;;21.80;48.96;94613.78;5072574;28;20470;-81
2023/08/28 03:31:05;;;;;;;9.48;5.25;;;;;;;21.83;48.95;94621.88;5071042;28;20102;-81
2023/08/28 03:33:30;;;;;;;6.43;5.43;;;;;;;21.83;48.96;94627.47;5090681;28;20028;-80
2023/08/28 03:35:56;;;;;;;11.55;5.15;;;;;;;21.73;49.26;94612.28;5089800;28;20036;-81
2023/08/28 03:38:22;;;;;;;7.90;5.65;;;;;;;21.71;49.56;94629.59;5072001;28;20049;-81
2023/08/28 03:40:47;;;;;;;9.32;5.38;;;;;;;21.70;49.55;94628.06;5072502;28;20024;-81
2023/08/28 03:43:13;;;;;;;9.45;6.15;;;;;;;21.70;49.57;94625.28;5089354;28;20406;-81
2023/08/28 03:45:39;;;;;;;9.10;5.07;;;;;;;21.66;49.46;94621.22;5090559;28;20020;-79
2023/08/28 03:48:05;;;;;;;6.50;4.75;;;;;;;21.64;49.84;94618.94;5089223;28;20138;-81
2023/08/28 03:50:30;;;;;;;9.52;5.50;;;;;;;21.64;49.73;94621.75;5055415;28;20028;-81
2023/08/28 03:52:59;;;;;;;10.93;5.93;;;;;;;21.58;50.12;94606.28;5088969;28;20038;-81
2023/08/28 03:55:27;;;;;;;8.02;5.68;;;;;;;21.54;49.84;94612.13;5090104;28;20055;-80
2023/08/28 03:57:53;;;;;;;16.17;6.50;;;;;;;21.56;49.89;94603.97;5089926;28;20028;-80
2023/08/28 04:00:18;;;;;;;14.27;6.18;;;;;;;21.56;49.96;94620.75;5089287;28;20054;-80
2023/08/28 04:02:48;;;;;;;14.38;6.72;;;;;;;21.56;49.93;94615.16;5090294;28;20466;-80
2023/08/28 04:05:14;;;;;;;11.10;5.88;;;;;;;21.53;49.91;94618.25;5088618;28;20118;-80
2023/08/28 04:07:40;;;;;;;11.82;6.63;;;;;;;21.51;49.85;94613.19;5072270;28;20050;-80
2023/08/28 04:10:06;;;;;;;9.52;6.57;;;;;;;21.57;49.87;94616.72;5088955;28;20497;-81
2023/08/28 04:12:32;;;;;;;12.30;7.30;;;;;;;21.56;49.82;94620.75;5089979;28;20024;-79
2023/08/28 04:14:58;;;;;;;14.50;6.25;;;;;;;21.45;49.83;94616.00;5089119;28;20291;-80
2023/08/28 04:17:23;;;;;;;10.13;6.43;;;;;;;21.45;50.09;94610.41;5089210;28;20251;-79
2023/08/28 04:19:50;;;;;;;14.07;7.63;;;;;;;21.42;50.00;94619.81;5089761;28;20024;-80
2023/08/28 04:22:15;;;;;;;13.77;6.40;;;;;;;21.38;50.41;94605.34;5088451;28;20065;-81
2023/08/28 04:24:41;;;;;;;13.23;6.40;;;;;;;21.43;50.52;94617.78;5053888;28;20101;-81
2023/08/28 04:27:06;;;;;;;14.13;6.97;;;;;;;21.39;50.30;94615.28;5086887;28;20024;-80
2023/08/28 04:29:31;;;;;;;10.80;6.63;;;;;;;21.44;50.43;94613.72;5088614;28;20107;-80
2023/08/28 04:31:57;;;;;;;13.77;7.13;;;;;;;21.48;50.33;94614.97;5088374;28;20528;-81
2023/08/28 04:34:22;;;;;;;12.10;6.50;;;;;;;21.52;49.95;94608.34;5088245;28;20038;-80
2023/08/28 04:36:48;;;;;;;10.05;6.57;;;;;;;21.45;50.47;94609.66;5070332;28;20161;-80
2023/08/28 04:39:13;;;;;;;10.40;6.60;;;;;;;21.51;50.47;94612.44;5087219;28;20043;-79
2023/08/28 04:41:39;;;;;;;16.23;6.57;;;;;;;21.52;50.21;94619.53;5070504;28;20016;-81
2023/08/28 04:44:05;;;;;;;15.68;7.03;;;;;;;21.45;50.37;94618.06;5086656;28;20490;-80
2023/08/28 04:46:30;;;;;;;11.00;7.07;;;;;;;21.52;50.14;94630.72;5088532;28;20032;-81
2023/08/28 04:48:55;;;;;;;11.43;7.22;;;;;;;21.52;50.14;94628.69;5068770;28;20757;-80
2023/08/28 04:51:21;;;;;;;12.45;6.95;;;;;;;21.54;50.05;94631.72;5087926;28;20020;-80
2023/08/28 04:53:46;;;;;;;16.67;7.07;;;;;;;21.52;50.24;94633.53;5087463;28;20052;-81
2023/08/28 04:56:11;;;;;;;18.13;8.50;;;;;;;21.61;50.46;94644.38;5087168;28;20530;-80
2023/08/28 04:58:37;;;;;;;18.73;8.90;;;;;;;21.58;50.22;94637.81;5052924;28;20573;-80
2023/08/28 05:01:03;;;;;;;16.38;8.13;;;;;;;21.58;50.10;94640.59;5086328;28;20165;-81
2023/08/28 05:03:28;;;;;;;20.65;9.07;;;;;;;21.65;49.63;94640.03;5087963;28;20051;-80
2023/08/28 05:05:54;;;;;;;17.90;7.60;;;;;;;21.69;50.00;94640.53;5086421;28;20027;-80
2023/08/28 05:08:20;;;;;;;13.52;8.52;;;;;;;21.72;49.78;94636.69;5087969;28;20031;-80
2023/08/28 05:10:45;;;;;;;12.25;7.25;;;;;;;21.74;49.36;94620.16;5085640;28;20024;-81
2023/08/28 05:13:11;;;;;;;13.05;7.82;;;;;;;21.78;49.26;94622.66;5068197;28;20028;-80
2023/08/28 05:15:36;;;;;;;12.95;7.10;;;;;;;21.79;49.65;94613.00;5087442;28;20498;-81
2023/08/28 05:18:02;;;;;;;12.73;8.00;;;;;;;21.93;49.06;94609.09;5085827;28;20027;-81
2023/08/28 05:20:28;;;;;;;11.52;7.25;;;;;;;22.01;49.10;94615.63;5087602;28;20361;-81
2023/08/28 05:22:54;;;;;;;11.20;7.43;;;;;;;22.00;49.04;94607.78;5085717;28;20026;-79
2023/08/28 05:25:19;;;;;;;16.20;8.13;;;;;;;21.96;48.66;94610.88;5087812;28;20024;-81
2023/08/28 05:27:45;;;;;;;12.45;6.90;;;;;;;22.01;49.23;94618.44;5067739;28;20026;-79
2023/08/28 05:30:10;;;;;;;12.18;6.57;;;;;;;22.02;48.96;94622.00;5087320;28;20086;-80
2023/08/28 05:32:36;;;;;;;12.18;7.47;;;;;;;22.05;48.35;94623.00;5068108;28;20036;-80
2023/08/28 05:35:03;;;;;;;14.95;7.10;;;;;;;22.10;48.49;94620.19;5068482;28;20077;-79
2023/08/28 05:37:28;;;;;;;16.73;7.93;;;;;;;22.24;48.33;94624.66;5087741;28;20069;-81
2023/08/28 05:39:54;;;;;;;12.98;6.32;;;;;;;22.17;48.21;94610.47;5086120;28;20024;-81
2023/08/28 05:42:19;;;;;;;10.63;6.20;;;;;;;22.20;48.38;94615.81;5087544;28;20537;-82
2023/08/28 05:44:45;;;;;;;10.63;6.30;;;;;;;22.21;48.26;94608.91;5067175;28;20429;-82
2023/08/28 05:47:11;;;;;;;10.82;5.97;;;;;;;22.25;48.08;94595.41;5087196;28;20024;-80
2023/08/28 05:49:36;;;;;;;7.10;5.63;;;;;;;22.44;47.92;94612.28;5067877;28;20039;-81
2023/08/28 05:52:02;;;;;;;10.02;6.55;;;;;;;22.43;47.79;94602.38;5086925;28;20352;-80
2023/08/28 05:54:28;;;;;;;9.43;5.57;;;;;;;22.47;47.49;94596.47;5068185;28;20887;-80
2023/08/28 05:56:54;;;;;;;10.38;5.80;;;;;;;22.49;47.53;94597.47;5086105;28;20027;-82
2023/08/28 05:59:20;;;;;;;12.88;5.95;;;;;;;22.56;47.23;94606.59;5087182;28;20103;-82
2023/08/28 06:01:45;;;;;;;8.48;5.45;;;;;;;22.58;47.05;94596.34;5067261;28;20501;-80
2023/08/28 06:04:10;;;;;;;10.18;5.18;;;;;;;22.67;47.08;94600.88;5087212;28;20028;-81
2023/08/28 06:06:37;;;;;;;9.35;5.72;;;;;;;22.70;47.07;94605.41;5085380;28;20020;-81
2023/08/28 06:09:05;;;;;;;8.50;5.15;;;;;;;22.84;46.64;94607.06;5087158;28;20074;-81
2023/08/28 06:11:31;;;;;;;8.85;5.05;;;;;;;22.84;46.64;94609.84;5068237;28;20062;-81
2023/08/28 06:13:58;;;;;;;12.77;6.30;;;;;;;22.80;46.43;94600.97;5086057;28;20029;-82
2023/08/28 06:16:23;;;;;;;7.82;5.45;;;;;;;22.79;46.64;94607.88;5086866;28;20555;-81
2023/08/28 06:18:49;;;;;;;8.35;5.28;;;;;;;22.83;46.66;94621.59;5085235;28;20016;-81
2023/08/28 06:21:14;;;;;;;9.50;5.10;;;;;;;22.85;46.86;94621.81;5086839;28;20552;-80
2023/08/28 06:23:39;;;;;;;10.43;6.35;;;;;;;22.96;46.56;94619.69;5067554;28;20127;-81
2023/08/28 06:26:05;;;;;;;12.20;6.43;;;;;;;23.06;46.25;94620.09;5087251;28;20525;-81
2023/08/28 06:28:30;;;;;;;9.40;5.88;;;;;;;23.12;45.99;94620.03;5086338;28;20030;-81
2023/08/28 06:30:56;;;;;;;10.25;6.15;;;;;;;23.15;46.01;94616.91;5090909;28;20031;-82
2023/08/28 06:33:21;;;;;;;10.13;5.53;;;;;;;23.22;46.02;94623.97;5090289;28;20027;-81
2023/08/28 06:35:47;;;;;;;10.60;5.97;;;;;;;23.20;45.74;94615.34;5089790;28;20054;-81
2023/08/28 06:38:13;;;;;;;12.43;5.78;;;;;;;23.28;45.86;94619.84;5072752;28;20020;-81
2023/08/28 06:40:38;;;;;;;8.95;6.22;;;;;;;23.37;45.57;94621.50;5071257;28;20028;-81
2023/08/28 06:43:04;;;;;;;13.38;5.47;;;;;;;23.47;45.11;94619.09;5090817;28;20482;-83
2023/08/28 06:45:30;;;;;;;11.10;5.63;;;;;;;23.57;45.24;94617.44;5089092;28;20468;-82
2023/08/28 06:47:57;;;;;;;10.52;5.07;;;;;;;23.55;44.88;94622.81;5090687;28;20099;-80
2023/08/28 06:50:23;;;;;;;8.60;4.82;;;;;;;23.59;44.92;94617.66;5071434;28;20024;-80
2023/08/28 06:52:48;;;;;;;8.40;4.70;;;;;;;23.68;44.93;94619.34;5089875;28;20527;-81
2023/08/28 06:55:14;;;;;;;13.18;4.97;;;;;;;23.77;44.12;94618.97;5089994;28;20397;-81
2023/08/28 06:57:39;;;;;;;12.07;5.43;;;;;;;23.78;43.88;94615.63;5089165;28;20028;-81
2023/08/28 07:00:06;;;;;;;12.85;4.93;;;;;;;23.88;44.00;94620.84;5090504;28;20085;-82
2023/08/28 07:02:32;;;;;;;8.27;4.88;;;;;;;23.93;43.75;94626.41;5088517;28;20036;-81
2023/08/28 07:04:57;;;;;;;8.63;4.60;;;;;;;23.95;43.57;94620.25;5090409;28;20107;-79
2023/08/28 07:07:22;;;;;;;7.63;5.05;;;;;;;24.06;43.84;94623.63;5054256;28;20101;-80
2023/08/28 07:09:48;;;;;;;8.73;5.03;;;;;;;24.15;43.79;94619.69;5090148;28;20050;-80
2023/08/28 07:12:13;;;;;;;10.07;4.80;;;;;;;24.26;43.72;94618.75;5071390;28;20020;-81
2023/08/28 07:14:39;;;;;;;7.20;4.97;;;;;;;24.31;43.38;94621.44;5070269;28;20043;-82
2023/08/28 07:17:04;;;;;;;10.23;5.63;;;;;;;24.43;43.23;94621.28;5055106;28;20016;-81
2023/08/28 07:19:29;;;;;;;10.55;5.30;;;;;;;24.52;43.01;94621.66;5088718;28;20016;-82
2023/08/28 07:21:57;;;;;;;9.38;4.68;;;;;;;24.58;43.22;94627.94;5090096;28;20475;-83
2023/08/28 07:24:22;;;;;;;8.70;4.72;;;;;;;24.68;42.83;94616.28;5088205;28;20043;-82
2023/08/28 07:26:48;;;;;;;12.07;5.50;;;;;;;24.86;42.17;94627.44;5089782;28;20020;-82
2023/08/28 07:29:13;;;;;;;6.82;4.20;;;;;;;25.02;41.59;94628.44;5054112;28;20473;-81
2023/08/28 07:31:38;;;;;;;10.13;5.25;;;;;;;25.07;40.79;94610.72;5089310;28;20478;-81
2023/08/28 07:34:04;;;;;;;9.57;4.93;;;;;;;25.15;40.89;94620.00;5089099;28;20107;-81
2023/08/28 07:36:30;;;;;;;6.78;4.43;;;;;;;25.18;41.01;94609.00;5088926;28;20422;-81
2023/08/28 07:38:56;;;;;;;9.48;5.60;;;;;;;25.28;41.32;94624.88;5089645;28;20035;-83
2023/08/28 07:41:21;;;;;;;10.63;5.30;;;;;;;25.46;40.66;94622.47;5087269;28;20020;-80
2023/08/28 07:43:47;;;;;;;11.75;5.13;;;;;;;25.54;40.69;94623.34;5089707;28;20028;-81
2023/08/28 07:46:12;;;;;;;9.15;6.15;;;;;;;25.65;40.78;94621.06;5069935;28;20079;-82
2023/08/28 07:48:38;;;;;;;6.28;5.07;;;;;;;25.73;40.41;94617.56;5089308;28;20035;-81
2023/08/28 07:51:04;;;;;;;9.10;4.60;;;;;;;25.89;39.94;94616.47;5070381;28;20032;-81
2023/08/28 07:53:29;;;;;;;9.38;4.85;;;;;;;25.93;39.74;94614.09;5088624;28;20024;-81
2023/08/28 07:55:55;;;;;;;9.52;4.50;;;;;;;26.05;39.62;94617.41;5089679;28;20081;-82
2023/08/28 07:58:20;;;;;;;10.82;5.47;;;;;;;26.27;39.12;94630.22;5088002;28;20024;-81
2023/08/28 08:00:45;;;;;;;9.20;4.60;;;;;;;26.34;39.14;94635.91;5089301;28;20453;-81
2023/08/28 08:03:11;;;;;;;14.75;5.32;;;;;;;26.47;38.89;94629.47;5087630;28;20036;-81
2023/08/28 08:05:36;;;;;;;7.30;4.68;;;;;;;26.61;38.51;94636.56;5089371;28;20077;-82
2023/08/28 08:08:03;;;;;;;11.77;4.82;;;;;;;26.67;38.32;94631.53;5069542;28;20166;-82
2023/08/28 08:10:29;;;;;;;10.00;4.63;;;;;;;26.72;38.25;94625.00;5070647;28;20471;-81
2023/08/28 08:12:54;;;;;;;9.43;4.30;;;;;;;26.95;37.70;94630.03;5088341;28;20107;-80
2023/08/28 08:15:20;;;;;;;8.18;4.10;;;;;;;27.08;37.54;94629.25;5069994;28;20140;-82
2023/08/28 08:17:45;;;;;;;9.80;4.95;;;;;;;27.17;37.14;94623.81;5070927;28;20012;-81
2023/08/28 08:20:11;;;;;;;7.00;4.60;;;;;;;27.37;36.61;94621.50;5087618;28;20679;-82
2023/08/28 08:22:40;;;;;;;8.98;4.18;;;;;;;27.47;36.60;94622.50;5089011;28;20027;-83
2023/08/28 08:25:07;;;;;;;6.95;4.35;;;;;;;27.58;36.00;94604.47;5047183;28;20430;-82
2023/08/28 08:27:33;;;;;;;6.60;3.92;;;;;;;27.79;35.28;94613.63;5047394;28;20031;-82
2023/08/28 08:29:58;;;;;;;8.30;4.15;;;;;;;27.96;35.41;94618.78;5047924;28;20078;-83
2023/08/28 08:32:24;;;;;;;8.98;4.70;;;;;;;28.09;35.31;94615.03;5048023;28;20017;-82
2023/08/28 08:34:49;;;;;;;10.25;4.40;;;;;;;28.23;35.10;94610.75;5029894;28;20111;-83
2023/08/28 08:37:15;;;;;;;7.00;4.32;;;;;;;28.34;34.81;94607.59;5047002;28;20025;-80
2023/08/28 08:39:41;;;;;;;5.88;4.32;;;;;;;28.58;34.28;94601.41;5047028;28;20032;-81
2023/08/28 08:42:07;;;;;;;7.75;4.47;;;;;;;28.78;34.01;94598.94;5046782;28;20021;-82
2023/08/28 08:44:33;;;;;;;7.32;4.18;;;;;;;28.92;34.00;94599.50;5047043;28;20067;-80
2023/08/28 08:47:02;;;;;;;6.90;4.50;;;;;;;29.17;33.82;94597.59;5045997;28;20045;-81
2023/08/28 08:49:33;;;;;;;6.72;4.00;;;;;;;29.34;33.78;94594.16;5048143;28;20123;-82
2023/08/28 08:52:02;;;;;;;8.50;4.63;;;;;;;29.60;32.95;94590.16;5047538;28;20112;-82
2023/08/28 08:54:36;;;;;;;7.68;4.40;;;;;;;29.76;33.02;94571.75;5045499;28;20128;-82
2023/08/28 08:57:06;;;;;;;9.00;4.20;;;;;;;30.10;32.33;94585.34;5046827;28;20044;-82
2023/08/28 08:59:32;;;;;;;7.00;4.00;;;;;;;30.33;31.93;94585.25;5045236;28;20021;-82
2023/08/28 09:02:02;;;;;;;5.38;3.63;;;;;;;30.58;31.88;94578.84;5047926;28;20035;-81
2023/08/28 09:04:28;;;;;;;4.93;3.97;;;;;;;30.84;31.27;94574.69;5045809;28;20368;-81
2023/08/28 09:06:55;;;;;;;7.07;4.32;;;;;;;31.00;31.16;94567.53;5046690;28;20029;-82
2023/08/28 09:09:21;;;;;;;6.40;4.10;;;;;;;31.36;30.46;94569.81;5046189;28;20037;-82
2023/08/28 09:11:48;;;;;;;7.85;3.75;;;;;;;31.59;30.16;94563.88;5046402;28;20385;-82
2023/08/28 09:14:14;;;;;;;5.90;3.85;;;;;;;31.84;30.06;94560.97;5046414;28;20041;-82
2023/08/28 09:16:39;;;;;;;9.13;4.30;;;;;;;32.13;29.65;94563.97;5045016;28;20507;-79
2023/08/28 09:19:05;;;;;;;6.65;4.00;;;;;;;32.37;29.25;94547.34;5046532;28;20029;-79
2023/08/28 09:21:45;;;;;;;7.30;4.07;;;;;;;32.69;28.27;94555.56;5045248;28;20027;-83
2023/08/28 09:24:10;;;;;;;7.20;4.28;;;;;;;32.96;27.71;94554.75;5071767;28;20040;-82
2023/08/28 09:26:38;;;;;;;6.82;3.72;;;;;;;33.23;26.59;94546.09;5087609;28;20024;-82
2023/08/28 09:29:06;;;;;;;6.03;3.78;;;;;;;33.47;27.04;94539.38;5086482;28;20049;-84
2023/08/28 09:31:33;;;;;;;6.03;3.95;;;;;;;33.72;26.31;94533.38;5088014;28;20027;-83
2023/08/28 09:34:00;;;;;;;8.55;3.75;;;;;;;33.89;26.10;94523.13;5067545;28;20068;-82
2023/08/28 09:36:25;;;;;;;5.25;3.80;;;;;;;34.08;25.98;94526.00;5069373;28;20020;-83
2023/08/28 09:38:51;;;;;;;6.45;3.75;;;;;;;34.34;25.33;94524.25;5086499;28;20035;-82
2023/08/28 09:41:16;;;;;;;7.57;3.92;;;;;;;34.61;24.58;94529.72;5087462;28;20024;-84
2023/08/28 09:43:42;;;;;;;8.73;3.47;;;;;;;34.81;24.02;94522.56;5068787;28;20027;-82
2023/08/28 09:46:07;;;;;;;5.85;3.17;;;;;;;35.07;22.51;94522.88;5068296;28;20028;-83
2023/08/28 09:48:34;;;;;;;5.43;3.33;;;;;;;35.26;22.58;94516.25;5052348;28;20085;-82
2023/08/28 09:51:04;;;;;;;6.78;3.30;;;;;;;35.48;22.75;94511.31;5067721;28;20027;-82
2023/08/28 09:53:30;;;;;;;7.75;3.38;;;;;;;35.70;22.52;94512.75;5069413;28;20150;-82
2023/08/28 09:55:57;;;;;;;5.80;3.20;;;;;;;35.95;22.04;94509.38;5067811;28;20506;-83
2023/08/28 09:58:27;;;;;;;7.30;3.08;;;;;;;36.12;21.64;94494.72;5068962;28;20031;-82
2023/08/28 10:00:55;;;;;;;6.03;2.78;;;;;;;36.34;21.11;94491.78;5068744;28;20031;-82
2023/08/28 10:03:23;;;;;;;5.80;3.38;;;;;;;36.55;20.88;94494.56;5085876;28;20505;-82
2023/08/28 10:05:51;;;;;;;4.35;2.78;;;;;;;36.74;20.41;94487.06;5052355;28;20032;-82
2023/08/28 10:08:16;;;;;;;6.13;2.80;;;;;;;37.04;20.71;94491.03;5067851;28;20044;-82
2023/08/28 10:10:47;;;;;;;4.30;2.83;;;;;;;37.27;19.73;94487.34;5087244;28;20500;-82
2023/08/28 10:13:17;;;;;;;4.13;2.90;;;;;;;37.44;19.69;94489.81;5068225;28;20433;-81
2023/08/28 10:15:53;;;;;;;5.70;2.92;;;;;;;37.54;18.54;94478.94;5068808;28;20016;-83
2023/08/28 10:18:48;;;;;;;4.30;2.80;;;;;;;37.73;18.96;94469.22;5086974;28;20084;-83
2023/08/28 10:21:16;;;;;;;7.13;2.90;;;;;;;37.91;18.43;94470.31;5084910;28;20089;-82
2023/08/28 10:23:41;;;;;;;8.82;3.03;;;;;;;38.12;18.95;94474.28;5069178;28;20102;-81
2023/08/28 10:26:09;;;;;;;7.55;3.55;;;;;;;38.30;18.26;94471.69;5067765;28;20048;-83
2023/08/28 10:28:35;;;;;;;7.05;3.13;;;;;;;38.36;18.52;94464.13;5051939;28;20071;-80
2023/08/28 10:31:03;;;;;;;7.43;2.58;;;;;;;38.41;17.71;94467.97;5067939;28;20085;-82
2023/08/28 10:33:29;;;;;;;5.95;2.50;;;;;;;38.48;17.13;94469.78;5050975;28;20532;-82
2023/08/28 10:35:54;;;;;;;5.85;2.72;;;;;;;38.69;17.53;94455.13;5068302;28;20530;-82
2023/08/28 10:38:21;;;;;;;6.28;2.75;;;;;;;38.85;17.80;94443.03;5067299;28;20020;-82
2023/08/28 10:40:51;;;;;;;4.57;3.00;;;;;;;38.95;17.83;94450.03;5068710;28;20027;-81
2023/08/28 10:43:20;;;;;;;4.78;3.25;;;;;;;39.16;17.55;94442.44;5050499;28;20032;-83
2023/08/28 10:45:47;;;;;;;4.70;3.10;;;;;;;39.34;17.35;94442.63;5086583;28;20503;-82
2023/08/28 10:48:12;;;;;;;5.40;3.20;;;;;;;39.51;17.02;94428.41;5067484;28;20079;-83
2023/08/28 10:50:38;;;;;;;5.47;3.13;;;;;;;39.68;16.57;94440.72;5067809;28;20060;-82
2023/08/28 10:53:05;;;;;;;4.65;2.60;;;;;;;39.95;17.04;94436.97;5086335;28;20119;-82
2023/08/28 10:55:30;;;;;;;6.22;2.42;;;;;;;40.22;15.62;94441.84;5067200;28;20032;-81
2023/08/28 10:58:00;;;;;;;4.85;2.20;;;;;;;40.47;15.29;94435.06;5068491;28;20501;-82
2023/08/28 11:00:27;;;;;;;5.63;2.70;;;;;;;40.97;15.29;94430.84;5066901;28;20063;-82
2023/08/28 11:03:10;;;;;;;4.97;3.08;;;;;;;41.56;15.10;94423.94;5068402;28;20085;-82
2023/08/28 11:05:37;;;;;;;8.35;3.13;;;;;;;42.07;14.50;94412.28;5085774;28;20103;-82
2023/08/28 11:08:07;;;;;;;5.75;2.92;;;;;;;42.55;13.85;94426.34;5085947;28;20080;-82
2023/08/28 11:10:33;;;;;;;4.85;2.75;;;;;;;43.01;13.63;94417.91;5051897;28;20032;-82
2023/08/28 11:13:05;;;;;;;5.97;2.05;;;;;;;43.50;12.62;94420.31;5067251;28;20127;-82
2023/08/28 11:15:38;;;;;;;9.10;2.55;;;;;;;44.05;12.62;94409.75;5069002;28;20547;-81
2023/08/28 11:18:19;;;;;;;6.57;2.35;;;;;;;44.74;11.98;94408.94;5070534;28;20035;-81
2023/08/28 11:20:52;;;;;;;3.35;1.92;;;;;;;45.30;11.46;94418.44;5071469;28;20034;-82
2023/08/28 11:23:25;;;;;;;5.75;2.50;;;;;;;45.71;11.24;94392.59;5071630;28;20070;-82
2023/08/28 11:25:51;;;;;;;6.30;2.65;;;;;;;45.99;11.12;94389.63;5070419;28;20082;-81
2023/08/28 11:28:29;;;;;;;6.40;2.55;;;;;;;46.04;11.14;94380.31;5090463;28;20024;-81